»·PEaware :: SWA3427 KLAX-KPHX

SWA3427 :: KLAX-KPHX

FLIGHT INFORMATION

Flight Status: Arrived
Operator:
Southwest Airlines
More flights by this operator :: More flights under this callsign
Pilot: Ben L. (6391)
Aircraft: BOEING 737-800
(B738)
More flights by this aircraft type
Origin: KLAX Los Angeles Intl
United States
Destination: KPHX Phoenix Sky Harbor Intl
United States
More flights between these airports :: More routes between these airports
Route: +DOTSS2 CNERY BLH HYDRR1
File this flight plan on PilotEdge
Remarks:
Altitude:
(Current/Filed)
37,000ft
Speed:
(Current/Filed)
460kts
Departed: 20-Mar-20 06:04 PM
Arrived: 20-Mar-20 06:58 PM
Distance/Time
Traveled:
321nm/0:54
Distance/Time
To Go:
Arrived

Flight Plot

Page will automatically refresh every two minutes.

Flight plan parsing failed; only flown route is shown


Map Options




Map Legend


Flown Route
Filed Route
Departure Airport
Arrival Airport
Navaid (VOR, NDB)
Fix

Horizontal Profiles

Position Reports

Time Latitude Longitude Heading Altitude Ground
Speed
20-Mar-20 17:25 33.947251 -118.401895 84 114ft 0kts
20-Mar-20 17:26 33.947251 -118.401895 84 114ft 0kts
20-Mar-20 17:27 33.947251 -118.401895 84 114ft 0kts
20-Mar-20 17:28 33.947251 -118.401895 84 114ft 0kts
20-Mar-20 17:29 33.947251 -118.401895 84 114ft 0kts
20-Mar-20 17:30 33.947251 -118.401895 84 114ft 0kts
20-Mar-20 17:31 33.947251 -118.401895 84 114ft 0kts
20-Mar-20 17:32 33.947251 -118.401895 84 114ft 0kts
20-Mar-20 17:33 33.947251 -118.401895 84 114ft 0kts
20-Mar-20 17:34 33.947251 -118.401895 84 114ft 0kts
20-Mar-20 17:35 33.947251 -118.401895 84 114ft 0kts
20-Mar-20 17:36 33.947251 -118.401895 84 114ft 0kts
20-Mar-20 17:37 33.947251 -118.401895 84 114ft 0kts
20-Mar-20 17:38 33.947251 -118.401895 84 114ft 0kts
20-Mar-20 17:39 33.947251 -118.401895 84 114ft 0kts
20-Mar-20 17:40 33.947251 -118.401895 84 114ft 0kts
20-Mar-20 17:41 33.947251 -118.401895 84 114ft 0kts
20-Mar-20 17:42 33.947251 -118.401895 84 114ft 0kts
20-Mar-20 17:43 33.947251 -118.401895 84 114ft 0kts
20-Mar-20 17:44 33.947251 -118.401895 84 114ft 0kts
20-Mar-20 17:45 33.947251 -118.401895 84 114ft 0kts
20-Mar-20 17:46 33.947251 -118.401895 84 114ft 0kts
20-Mar-20 17:47 33.947251 -118.401895 84 114ft 0kts
20-Mar-20 17:48 33.947251 -118.401895 84 114ft 0kts
20-Mar-20 17:49 33.947251 -118.401895 84 114ft 0kts
20-Mar-20 17:50 33.947251 -118.401895 84 114ft 0kts
20-Mar-20 17:51 33.947251 -118.401895 84 114ft 0kts
20-Mar-20 17:52 33.947251 -118.401895 84 114ft 0kts
20-Mar-20 17:53 33.947093 -118.402291 41 114ft 2kts
20-Mar-20 17:54 33.946646 -118.402455 351 114ft 0kts
20-Mar-20 17:55 33.946646 -118.402455 351 114ft 0kts
20-Mar-20 17:56 33.947092 -118.402538 351 114ft 4kts
20-Mar-20 17:57 33.947587 -118.402629 351 114ft 0kts
20-Mar-20 17:58 33.947587 -118.402629 351 114ft 0kts
20-Mar-20 17:59 33.948978 -118.402416 70 114ft 15kts
20-Mar-20 18:00 33.949501 -118.399231 51 114ft 0kts
20-Mar-20 18:01 33.949502 -118.399231 50 114ft 0kts
20-Mar-20 18:02 33.949682 -118.399122 17 114ft 11kts
20-Mar-20 18:03 33.948029 -118.423673 264 474ft 162kts
20-Mar-20 18:04 33.944228 -118.478452 259 2733ft 188kts
20-Mar-20 18:05 33.938743 -118.554370 263 4777ft 258kts
20-Mar-20 18:06 33.913437 -118.633775 210 7892ft 271kts
20-Mar-20 18:07 33.842412 -118.631497 161 10488ft 293kts
20-Mar-20 18:08 33.765609 -118.576572 147 12501ft 337kts
20-Mar-20 18:09 33.696202 -118.499412 126 15453ft 351kts
20-Mar-20 18:10 33.657826 -118.387984 114 18003ft 371kts
20-Mar-20 18:11 33.644611 -118.260134 96 20209ft 401kts
20-Mar-20 18:12 33.644702 -118.123072 96 22158ft 419kts
20-Mar-20 18:13 33.644703 -117.980070 97 23878ft 437kts
20-Mar-20 18:14 33.640855 -117.831481 106 25444ft 446kts
20-Mar-20 18:15 33.613709 -117.684431 113 26892ft 454kts
20-Mar-20 18:16 33.579307 -117.535780 115 28155ft 468kts
20-Mar-20 18:17 33.542249 -117.383501 115 29329ft 482kts
20-Mar-20 18:18 33.511055 -117.224726 108 30435ft 503kts
20-Mar-20 18:19 33.503127 -117.052805 99 31467ft 524kts
20-Mar-20 18:20 33.500188 -116.875098 99 32274ft 539kts
20-Mar-20 18:21 33.497397 -116.694734 99 33486ft 542kts
20-Mar-20 18:22 33.494415 -116.513532 99 34775ft 542kts
20-Mar-20 18:23 33.491284 -116.339810 100 36108ft 539kts
20-Mar-20 18:24 33.488422 -116.160320 100 37123ft 539kts
20-Mar-20 18:25 33.503496 -115.979154 78 37159ft 560kts
20-Mar-20 18:26 33.554082 -115.802225 75 37159ft 561kts
20-Mar-20 18:27 33.604051 -115.624497 84 37172ft 555kts
20-Mar-20 18:28 33.612002 -115.442650 98 37173ft 541kts
20-Mar-20 18:29 33.609750 -115.270463 100 37152ft 532kts
20-Mar-20 18:30 33.605724 -115.091859 101 37155ft 536kts
20-Mar-20 18:31 33.601075 -114.913296 100 37158ft 536kts
20-Mar-20 18:32 33.587371 -114.737687 111 37162ft 522kts
20-Mar-20 18:33 33.557570 -114.567652 113 37173ft 518kts
20-Mar-20 18:34 33.525502 -114.399389 113 37076ft 521kts
20-Mar-20 18:35 33.494474 -114.239605 114 35154ft 515kts
20-Mar-20 18:36 33.461800 -114.073533 114 32138ft 509kts
20-Mar-20 18:37 33.428455 -113.909536 112 28941ft 508kts
20-Mar-20 18:38 33.395503 -113.746189 110 25835ft 496kts
20-Mar-20 18:39 33.364330 -113.591658 110 23703ft 464kts
20-Mar-20 18:40 33.334828 -113.445949 108 21664ft 436kts
20-Mar-20 18:41 33.313012 -113.320086 108 21489ft 409kts
20-Mar-20 18:42 33.290659 -113.185354 105 20145ft 401kts
20-Mar-20 18:43 33.276395 -113.057000 96 19157ft 380kts
20-Mar-20 18:44 33.278109 -112.927376 92 18696ft 386kts
20-Mar-20 18:45 33.283265 -112.798413 83 16575ft 383kts
20-Mar-20 18:46 33.302790 -112.679141 77 15034ft 344kts
20-Mar-20 18:47 33.362331 -112.600514 58 13630ft 313kts
20-Mar-20 18:48 33.409211 -112.523676 31 13319ft 281kts
20-Mar-20 18:49 33.466259 -112.467109 72 11687ft 256kts
20-Mar-20 18:50 33.460166 -112.387641 119 10116ft 243kts
20-Mar-20 18:51 33.434719 -112.320600 106 8552ft 238kts
20-Mar-20 18:52 33.430092 -112.242094 93 6936ft 235kts
20-Mar-20 18:53 33.427615 -112.169166 92 5529ft 198kts
20-Mar-20 18:54 33.429033 -112.104376 90 3311ft 181kts
20-Mar-20 18:55 33.429011 -112.048821 90 1538ft 152kts
20-Mar-20 18:56 33.428823 -112.005214 87 1119ft 82kts
20-Mar-20 18:58 33.429769 -112.002093 312 1119ft 0kts
20-Mar-20 18:59 33.430558 -111.999694 15 1119ft 16kts
20-Mar-20 19:00 33.432269 -112.000352 315 1119ft 4kts
20-Mar-20 19:01 33.432835 -111.998847 89 1119ft 9kts

Navigation Log

Ident Type
Flight plan parsing failed, navigation log unavailable